Time;durP1;ratioP1;P1;durP2;ratioP2;P2;SDS_P1;SDS_P2;PMS_P1;PMS_P2;Temp;Humidity;BMP_temperature;BMP_pressure;BME280_temperature;BME280_humidity;BME280_pressure;Samples;Min_cycle;Max_cycle;Signal;HPM_P1;HPM_P2
2021/10/31 00:00:26;;;;;;;13.18;6.55;;;;;;;;;;5054439;28;20051;-55
2021/10/31 00:02:52;;;;;;;13.15;6.78;;;;;;;;;;5053689;28;20025;-55
2021/10/31 00:05:19;;;;;;;12.50;6.50;;;;;;;;;;5053941;28;20025;-54
2021/10/31 00:07:45;;;;;;;11.80;6.88;;;;;;;;;;5053972;28;20052;-55
2021/10/31 00:10:12;;;;;;;12.50;7.40;;;;;;;;;;5053872;28;20013;-55
2021/10/31 00:12:38;;;;;;;11.27;6.03;;;;;;;;;;5054250;28;20044;-55
2021/10/31 00:15:04;;;;;;;13.50;6.50;;;;;;;;;;5053153;28;20017;-55
2021/10/31 00:17:30;;;;;;;15.30;6.60;;;;;;;;;;5053826;28;20053;-55
2021/10/31 00:19:56;;;;;;;12.02;6.25;;;;;;;;;;5053697;28;20025;-55
2021/10/31 00:22:22;;;;;;;11.18;6.32;;;;;;;;;;5052950;28;20055;-55
2021/10/31 00:24:49;;;;;;;13.50;6.03;;;;;;;;;;5052492;28;20096;-55
2021/10/31 00:27:15;;;;;;;12.07;6.70;;;;;;;;;;5053957;28;20025;-55
2021/10/31 00:29:42;;;;;;;12.98;6.38;;;;;;;;;;5053813;28;20071;-55
2021/10/31 00:32:08;;;;;;;12.65;6.90;;;;;;;;;;5053829;28;20061;-55
2021/10/31 00:34:34;;;;;;;11.18;6.07;;;;;;;;;;5052984;28;20025;-55
2021/10/31 00:37:00;;;;;;;9.80;6.00;;;;;;;;;;5053255;28;20025;-55
2021/10/31 00:39:26;;;;;;;13.63;5.22;;;;;;;;;;5053527;28;20039;-56
2021/10/31 00:41:52;;;;;;;11.75;6.32;;;;;;;;;;5053376;28;20466;-55
2021/10/31 00:44:18;;;;;;;13.00;6.38;;;;;;;;;;5052719;28;20111;-55
2021/10/31 00:46:44;;;;;;;13.40;6.72;;;;;;;;;;5053400;28;20582;-55
2021/10/31 00:49:10;;;;;;;14.07;6.97;;;;;;;;;;5053692;28;20036;-55
2021/10/31 00:51:36;;;;;;;13.15;6.05;;;;;;;;;;5052815;28;20029;-55
2021/10/31 00:54:03;;;;;;;14.02;5.57;;;;;;;;;;5052305;28;20455;-55
2021/10/31 00:56:31;;;;;;;10.90;5.25;;;;;;;;;;5053699;28;20028;-55
2021/10/31 00:58:57;;;;;;;8.90;5.32;;;;;;;;;;5052323;28;20049;-55
2021/10/31 01:01:23;;;;;;;11.30;5.15;;;;;;;;;;5053192;28;20021;-55
2021/10/31 01:03:50;;;;;;;10.90;5.47;;;;;;;;;;5052789;28;20351;-55
2021/10/31 01:06:31;;;;;;;10.00;5.68;;;;;;;;;;5052970;28;20306;-55
2021/10/31 01:09:15;;;;;;;10.10;5.05;;;;;;;;;;5040867;28;20047;-55
2021/10/31 01:11:51;;;;;;;14.23;5.07;;;;;;;;;;5052419;28;20037;-55
2021/10/31 01:14:35;;;;;;;10.25;5.82;;;;;;;;;;5051676;28;20098;-55
2021/10/31 01:17:06;;;;;;;10.35;5.28;;;;;;;;;;5052867;28;20098;-55
2021/10/31 01:19:32;;;;;;;12.18;4.68;;;;;;;;;;5052714;28;20089;-55
2021/10/31 01:22:16;;;;;;;9.98;5.78;;;;;;;;;;5052348;28;20100;-55
2021/10/31 01:24:42;;;;;;;9.43;4.78;;;;;;;;;;5050070;28;20048;-55
2021/10/31 01:27:28;;;;;;;5.95;3.63;;;;;;;;;;5052557;28;20037;-55
2021/10/31 01:29:54;;;;;;;11.60;5.63;;;;;;;;;;5052677;28;20056;-55
2021/10/31 01:32:20;;;;;;;12.45;6.13;;;;;;;;;;5052588;28;20075;-55
2021/10/31 01:35:05;;;;;;;10.88;5.30;;;;;;;;;;5051669;28;20506;-55
2021/10/31 01:37:34;;;;;;;12.70;5.10;;;;;;;;;;5052317;28;20098;-55
2021/10/31 01:40:08;;;;;;;11.40;5.32;;;;;;;;;;5052280;28;20047;-55
2021/10/31 01:42:53;;;;;;;8.02;4.60;;;;;;;;;;5052676;28;20033;-55
2021/10/31 01:45:38;;;;;;;8.32;4.68;;;;;;;;;;5051909;28;20021;-55
2021/10/31 01:48:26;;;;;;;10.82;5.50;;;;;;;;;;5052688;28;20549;-55
2021/10/31 01:50:56;;;;;;;12.85;6.22;;;;;;;;;;5052549;28;20036;-55
2021/10/31 01:53:22;;;;;;;10.87;5.87;;;;;;;;;;5051823;28;20033;-54
2021/10/31 01:55:57;;;;;;;14.77;6.90;;;;;;;;;;5052160;28;20266;-55
2021/10/31 01:58:24;;;;;;;14.05;6.85;;;;;;;;;;5052373;28;20044;-54
2021/10/31 02:00:52;;;;;;;15.77;6.30;;;;;;;;;;5052133;28;20104;-55
2021/10/31 02:03:19;;;;;;;11.32;5.90;;;;;;;;;;5051625;28;20435;-55
2021/10/31 02:05:46;;;;;;;12.73;6.50;;;;;;;;;;5051770;28;20431;-55
2021/10/31 02:08:13;;;;;;;17.73;6.72;;;;;;;;;;5052274;28;20021;-55
2021/10/31 02:10:40;;;;;;;16.00;6.85;;;;;;;;;;5054057;28;20064;-55
2021/10/31 02:13:08;;;;;;;11.25;5.55;;;;;;;;;;5055154;28;20045;-55
2021/10/31 02:15:34;;;;;;;16.80;6.22;;;;;;;;;;5056271;28;20025;-55
2021/10/31 02:18:01;;;;;;;13.93;7.15;;;;;;;;;;5056254;28;20040;-55
2021/10/31 02:20:28;;;;;;;14.23;6.25;;;;;;;;;;5054857;28;20021;-55
2021/10/31 02:22:55;;;;;;;16.88;6.97;;;;;;;;;;5055266;28;20043;-55
2021/10/31 02:25:21;;;;;;;13.40;6.45;;;;;;;;;;5055858;28;20475;-55
2021/10/31 02:27:48;;;;;;;11.52;5.72;;;;;;;;;;5055972;28;20064;-55
2021/10/31 02:30:14;;;;;;;11.93;5.50;;;;;;;;;;5055998;28;20421;-55
2021/10/31 02:32:40;;;;;;;12.70;6.70;;;;;;;;;;5055753;28;20029;-55
2021/10/31 02:35:08;;;;;;;12.73;6.32;;;;;;;;;;5054964;28;20033;-55
2021/10/31 02:37:35;;;;;;;13.70;6.88;;;;;;;;;;5055669;28;20454;-55
2021/10/31 02:40:01;;;;;;;12.82;6.32;;;;;;;;;;5055538;28;20363;-55
2021/10/31 02:42:27;;;;;;;12.15;5.63;;;;;;;;;;5055956;28;20044;-55
2021/10/31 02:44:53;;;;;;;11.27;5.68;;;;;;;;;;5055007;28;20473;-54
2021/10/31 02:47:31;;;;;;;11.93;6.32;;;;;;;;;;5055296;28;20056;-55
2021/10/31 02:49:57;;;;;;;8.80;5.38;;;;;;;;;;5056028;28;20029;-55
2021/10/31 02:52:32;;;;;;;14.98;5.90;;;;;;;;;;5055008;28;20406;-55
2021/10/31 02:55:01;;;;;;;13.93;6.22;;;;;;;;;;5054947;28;20055;-55
2021/10/31 02:57:30;;;;;;;15.02;4.60;;;;;;;;;;5055625;28;20052;-55
2021/10/31 03:00:01;;;;;;;13.95;5.60;;;;;;;;;;5055201;28;20382;-55
2021/10/31 03:02:28;;;;;;;11.00;5.57;;;;;;;;;;5055167;28;20021;-55
2021/10/31 03:04:54;;;;;;;9.38;5.70;;;;;;;;;;5054880;28;20343;-55
2021/10/31 03:07:22;;;;;;;9.02;5.28;;;;;;;;;;5055159;28;20028;-56
2021/10/31 03:09:48;;;;;;;14.20;6.95;;;;;;;;;;5055201;28;20031;-55
2021/10/31 03:12:15;;;;;;;14.07;6.40;;;;;;;;;;5054740;28;20021;-55
2021/10/31 03:14:41;;;;;;;11.32;5.78;;;;;;;;;;5054451;28;20059;-55
2021/10/31 03:17:07;;;;;;;16.25;5.60;;;;;;;;;;5054838;28;20059;-55
2021/10/31 03:19:33;;;;;;;12.52;6.10;;;;;;;;;;5055232;28;20375;-55
2021/10/31 03:22:00;;;;;;;11.48;5.72;;;;;;;;;;5053760;28;20017;-55
2021/10/31 03:24:26;;;;;;;10.82;6.32;;;;;;;;;;5053946;28;20416;-55
2021/10/31 03:26:52;;;;;;;10.90;5.88;;;;;;;;;;5053645;28;20459;-55
2021/10/31 03:29:20;;;;;;;10.85;5.30;;;;;;;;;;5054829;28;20029;-55
2021/10/31 03:31:47;;;;;;;17.05;6.28;;;;;;;;;;5055144;28;20052;-55
2021/10/31 03:34:13;;;;;;;14.23;6.32;;;;;;;;;;5053976;28;20029;-55
2021/10/31 03:36:39;;;;;;;17.35;5.93;;;;;;;;;;5054734;28;20025;-55
2021/10/31 03:39:05;;;;;;;21.45;6.25;;;;;;;;;;5054251;28;20370;-55
2021/10/31 03:41:31;;;;;;;12.77;5.50;;;;;;;;;;5054693;28;20021;-55
2021/10/31 03:43:57;;;;;;;13.52;6.07;;;;;;;;;;5053614;28;20025;-55
2021/10/31 03:46:23;;;;;;;7.43;4.57;;;;;;;;;;5054517;28;20528;-55
2021/10/31 03:48:49;;;;;;;12.32;5.75;;;;;;;;;;5054383;28;20143;-55
2021/10/31 03:51:15;;;;;;;15.02;5.45;;;;;;;;;;5054483;28;20029;-55
2021/10/31 03:53:41;;;;;;;10.75;5.30;;;;;;;;;;5053497;28;20033;-55
2021/10/31 03:56:07;;;;;;;9.88;5.35;;;;;;;;;;5054227;28;20029;-55
2021/10/31 03:58:33;;;;;;;13.27;6.47;;;;;;;;;;5040243;28;20509;-55
2021/10/31 04:01:00;;;;;;;12.15;6.30;;;;;;;;;;5039067;28;20020;-55
2021/10/31 04:03:27;;;;;;;10.32;6.10;;;;;;;;;;5053258;28;20025;-55
2021/10/31 04:05:53;;;;;;;11.98;6.10;;;;;;;;;;5053974;28;20025;-55
2021/10/31 04:08:19;;;;;;;12.25;6.35;;;;;;;;;;5054408;28;20349;-55
2021/10/31 04:10:45;;;;;;;13.30;5.75;;;;;;;;;;5054026;28;20481;-55
2021/10/31 04:13:11;;;;;;;12.38;5.18;;;;;;;;;;5053160;28;20122;-55
2021/10/31 04:15:37;;;;;;;10.48;5.35;;;;;;;;;;5052332;28;20079;-55
2021/10/31 04:18:03;;;;;;;12.82;5.80;;;;;;;;;;5053944;28;20029;-55
2021/10/31 04:20:29;;;;;;;9.95;5.50;;;;;;;;;;5052431;28;20029;-55
2021/10/31 04:22:55;;;;;;;10.98;5.45;;;;;;;;;;5052982;28;20039;-55
2021/10/31 04:25:21;;;;;;;14.07;6.07;;;;;;;;;;5034471;28;20033;-56
2021/10/31 04:27:47;;;;;;;12.98;6.00;;;;;;;;;;5032654;28;20022;-55
2021/10/31 04:30:13;;;;;;;14.27;6.65;;;;;;;;;;5033448;28;20127;-55
2021/10/31 04:32:39;;;;;;;11.10;5.78;;;;;;;;;;5033631;28;20033;-55
2021/10/31 04:35:06;;;;;;;13.68;6.80;;;;;;;;;;5032760;28;20034;-55
2021/10/31 04:37:35;;;;;;;12.45;5.72;;;;;;;;;;5033642;28;20045;-55
2021/10/31 04:40:04;;;;;;;9.18;5.07;;;;;;;;;;5033349;28;20026;-55
2021/10/31 04:42:31;;;;;;;11.95;5.90;;;;;;;;;;5033458;28;20026;-54
2021/10/31 04:44:57;;;;;;;11.45;5.68;;;;;;;;;;5032653;28;20026;-55
2021/10/31 04:47:24;;;;;;;11.15;6.10;;;;;;;;;;5033888;28;20032;-54
2021/10/31 04:49:50;;;;;;;13.90;6.20;;;;;;;;;;5032995;28;20025;-55
2021/10/31 04:52:16;;;;;;;14.43;5.80;;;;;;;;;;5032094;28;20103;-55
2021/10/31 04:54:42;;;;;;;10.25;6.20;;;;;;;;;;5032741;28;20172;-55
2021/10/31 04:57:08;;;;;;;12.43;5.65;;;;;;;;;;5031967;28;20029;-54
2021/10/31 04:59:34;;;;;;;11.68;6.28;;;;;;;;;;5033120;28;20392;-55
2021/10/31 05:02:00;;;;;;;9.98;6.32;;;;;;;;;;5035179;28;20029;-55
2021/10/31 05:04:26;;;;;;;11.88;5.25;;;;;;;;;;5031251;28;20017;-55
2021/10/31 05:06:52;;;;;;;11.68;5.80;;;;;;;;;;5030849;28;20032;-54
2021/10/31 05:09:18;;;;;;;12.57;5.93;;;;;;;;;;5031881;28;20027;-55
2021/10/31 05:11:45;;;;;;;16.33;6.90;;;;;;;;;;5032788;28;20029;-55
2021/10/31 05:14:11;;;;;;;16.60;6.50;;;;;;;;;;5035557;28;20446;-55
2021/10/31 05:16:37;;;;;;;15.88;6.20;;;;;;;;;;5042385;28;20454;-55
2021/10/31 05:19:08;;;;;;;12.25;6.00;;;;;;;;;;5040560;28;20028;-55
2021/10/31 05:21:35;;;;;;;11.73;5.68;;;;;;;;;;5041729;28;20022;-55
2021/10/31 05:24:01;;;;;;;8.90;4.55;;;;;;;;;;5037121;28;20059;-55
2021/10/31 05:26:27;;;;;;;8.70;4.72;;;;;;;;;;5041837;28;20021;-55
2021/10/31 05:28:54;;;;;;;11.05;5.93;;;;;;;;;;5052516;28;20024;-55
2021/10/31 05:31:20;;;;;;;8.43;5.07;;;;;;;;;;5052506;28;20036;-55
2021/10/31 05:33:47;;;;;;;10.77;5.50;;;;;;;;;;5051662;28;20470;-54
2021/10/31 05:36:13;;;;;;;10.77;5.28;;;;;;;;;;5052230;28;20064;-55
2021/10/31 05:38:39;;;;;;;11.32;6.15;;;;;;;;;;5052566;28;20044;-54
2021/10/31 05:41:05;;;;;;;12.25;5.88;;;;;;;;;;5052471;28;20104;-55
2021/10/31 05:43:32;;;;;;;10.65;6.00;;;;;;;;;;5051985;28;20028;-55
2021/10/31 05:45:58;;;;;;;15.98;7.10;;;;;;;;;;5051555;28;20601;-55
2021/10/31 05:48:24;;;;;;;10.23;6.05;;;;;;;;;;5052587;28;20082;-55
2021/10/31 05:50:53;;;;;;;13.00;5.20;;;;;;;;;;5052622;28;20017;-55
2021/10/31 05:53:19;;;;;;;14.70;7.47;;;;;;;;;;5051540;28;20044;-55
2021/10/31 05:55:45;;;;;;;11.38;6.35;;;;;;;;;;5052583;28;20017;-55
2021/10/31 05:58:11;;;;;;;14.55;7.15;;;;;;;;;;5052274;28;20021;-55
2021/10/31 06:00:37;;;;;;;12.32;5.68;;;;;;;;;;5052080;28;20029;-55
2021/10/31 06:03:03;;;;;;;9.88;5.70;;;;;;;;;;5051564;28;20032;-55
2021/10/31 06:05:30;;;;;;;14.05;6.88;;;;;;;;;;5052166;28;20462;-55
2021/10/31 06:07:56;;;;;;;12.27;5.22;;;;;;;;;;5051056;28;20033;-54
2021/10/31 06:10:22;;;;;;;10.13;5.50;;;;;;;;;;5052096;28;20032;-55
2021/10/31 06:12:48;;;;;;;18.33;6.75;;;;;;;;;;5052210;28;20169;-55
2021/10/31 06:15:16;;;;;;;16.38;5.63;;;;;;;;;;5051323;28;20455;-55
2021/10/31 06:17:42;;;;;;;10.13;5.10;;;;;;;;;;5052497;28;20064;-55
2021/10/31 06:20:09;;;;;;;21.02;5.75;;;;;;;;;;5051855;28;20063;-55
2021/10/31 06:22:35;;;;;;;13.55;5.57;;;;;;;;;;5052229;28;20447;-55
2021/10/31 06:25:01;;;;;;;11.70;4.95;;;;;;;;;;5051192;28;20021;-55
2021/10/31 06:27:27;;;;;;;8.25;4.55;;;;;;;;;;5051750;28;20029;-54
2021/10/31 06:29:53;;;;;;;11.32;5.72;;;;;;;;;;5051604;28;20056;-55
2021/10/31 06:32:19;;;;;;;8.25;5.00;;;;;;;;;;5052281;28;20036;-55
2021/10/31 06:34:45;;;;;;;12.73;5.68;;;;;;;;;;5051288;28;20025;-55
2021/10/31 06:37:11;;;;;;;15.43;6.45;;;;;;;;;;5052029;28;20489;-55
2021/10/31 06:39:37;;;;;;;10.48;5.45;;;;;;;;;;5051765;28;20068;-55
2021/10/31 06:42:03;;;;;;;7.97;5.68;;;;;;;;;;5051730;28;20125;-55
2021/10/31 06:44:29;;;;;;;10.35;5.70;;;;;;;;;;5051020;28;20062;-55
2021/10/31 06:46:55;;;;;;;8.85;5.10;;;;;;;;;;5051720;28;20036;-55
2021/10/31 06:49:21;;;;;;;12.95;6.80;;;;;;;;;;5050626;28;20043;-55
2021/10/31 06:51:48;;;;;;;12.70;5.40;;;;;;;;;;5051542;28;20072;-55
2021/10/31 06:54:15;;;;;;;9.73;5.72;;;;;;;;;;5051561;28;20029;-55
2021/10/31 06:56:41;;;;;;;15.82;7.90;;;;;;;;;;5051916;28;20074;-55
2021/10/31 06:59:07;;;;;;;15.60;6.57;;;;;;;;;;5055370;28;20078;-55
2021/10/31 07:01:33;;;;;;;13.30;6.97;;;;;;;;;;5055284;28;20017;-55
2021/10/31 07:03:59;;;;;;;13.57;6.10;;;;;;;;;;5054597;28;20028;-55
2021/10/31 07:06:25;;;;;;;11.45;5.93;;;;;;;;;;5055503;28;20021;-55
2021/10/31 07:08:51;;;;;;;8.00;5.38;;;;;;;;;;5053745;28;20086;-56
2021/10/31 07:11:17;;;;;;;14.77;5.60;;;;;;;;;;5053168;28;20043;-55
2021/10/31 07:13:43;;;;;;;10.50;6.60;;;;;;;;;;5054256;28;20033;-55
2021/10/31 07:16:09;;;;;;;9.48;5.22;;;;;;;;;;5054522;28;20029;-51
2021/10/31 07:18:35;;;;;;;10.57;6.00;;;;;;;;;;5049957;28;20025;-55
2021/10/31 07:21:01;;;;;;;15.23;6.25;;;;;;;;;;5043194;28;20041;-56
2021/10/31 07:23:27;;;;;;;11.55;5.80;;;;;;;;;;5040573;28;20435;-55
2021/10/31 07:25:53;;;;;;;12.48;6.57;;;;;;;;;;5034574;28;20473;-55
2021/10/31 07:28:19;;;;;;;15.98;5.97;;;;;;;;;;5035290;28;20021;-55
2021/10/31 07:30:45;;;;;;;13.07;6.45;;;;;;;;;;5034642;28;20035;-55
2021/10/31 07:33:13;;;;;;;13.68;7.32;;;;;;;;;;5034105;28;20300;-55
2021/10/31 07:35:39;;;;;;;15.07;6.95;;;;;;;;;;5034723;28;20406;-55
2021/10/31 07:38:05;;;;;;;12.43;5.72;;;;;;;;;;5034389;28;20026;-55
2021/10/31 07:40:31;;;;;;;13.52;5.60;;;;;;;;;;5036745;28;20017;-55
2021/10/31 07:42:57;;;;;;;20.52;7.72;;;;;;;;;;5036732;28;20091;-55
2021/10/31 07:45:23;;;;;;;10.88;6.05;;;;;;;;;;5032251;28;20029;-56
2021/10/31 07:47:49;;;;;;;11.00;6.13;;;;;;;;;;5031710;28;20470;-56
2021/10/31 07:50:15;;;;;;;12.90;6.68;;;;;;;;;;5033179;28;20079;-55
2021/10/31 07:52:43;;;;;;;12.90;6.80;;;;;;;;;;5032589;28;20038;-56
2021/10/31 07:55:13;;;;;;;12.70;7.00;;;;;;;;;;5031402;28;20021;-55
2021/10/31 07:57:38;;;;;;;12.65;5.53;;;;;;;;;;5033102;28;20021;-55
2021/10/31 08:00:05;;;;;;;17.40;6.90;;;;;;;;;;5033582;28;20523;-56
2021/10/31 08:02:31;;;;;;;14.40;6.30;;;;;;;;;;5032713;28;20034;-55
2021/10/31 08:04:57;;;;;;;14.88;7.30;;;;;;;;;;5032337;28;20041;-55
2021/10/31 08:07:30;;;;;;;12.90;6.80;;;;;;;;;;5032640;28;20017;-55
2021/10/31 08:09:58;;;;;;;12.75;7.43;;;;;;;;;;5033144;28;20052;-55
2021/10/31 08:12:25;;;;;;;12.98;6.68;;;;;;;;;;5032748;28;20079;-55
2021/10/31 08:14:51;;;;;;;13.15;6.15;;;;;;;;;;5032627;28;20409;-56
2021/10/31 08:17:17;;;;;;;14.60;7.43;;;;;;;;;;5033191;28;20029;-55
2021/10/31 08:19:43;;;;;;;14.82;6.10;;;;;;;;;;5032801;28;20029;-55
2021/10/31 08:22:09;;;;;;;13.98;6.07;;;;;;;;;;5032801;28;20151;-55
2021/10/31 08:24:35;;;;;;;12.27;6.68;;;;;;;;;;5030345;28;20022;-56
2021/10/31 08:27:01;;;;;;;19.38;8.00;;;;;;;;;;5033194;28;20041;-55
2021/10/31 08:29:26;;;;;;;18.73;6.22;;;;;;;;;;5032920;28;20026;-55
2021/10/31 08:31:55;;;;;;;19.63;7.53;;;;;;;;;;5030442;28;20116;-55
2021/10/31 08:34:21;;;;;;;22.38;7.70;;;;;;;;;;5031984;28;20590;-55
2021/10/31 08:36:47;;;;;;;14.40;8.00;;;;;;;;;;5032720;28;20447;-55
2021/10/31 08:39:13;;;;;;;14.57;7.13;;;;;;;;;;5034538;28;20026;-55
2021/10/31 08:41:39;;;;;;;13.40;7.68;;;;;;;;;;5047570;28;20112;-55
2021/10/31 08:44:06;;;;;;;15.38;7.97;;;;;;;;;;5044521;28;20112;-55
2021/10/31 08:46:33;;;;;;;16.38;8.43;;;;;;;;;;5052148;28;20017;-56
2021/10/31 08:48:59;;;;;;;13.40;7.32;;;;;;;;;;5052857;28;20024;-56
2021/10/31 08:51:26;;;;;;;13.93;6.35;;;;;;;;;;5052012;28;20051;-56
2021/10/31 08:53:55;;;;;;;16.83;7.57;;;;;;;;;;5051896;28;20069;-56
2021/10/31 08:56:22;;;;;;;17.13;7.63;;;;;;;;;;5052860;28;20573;-56
2021/10/31 08:58:48;;;;;;;15.40;7.38;;;;;;;;;;5052994;28;20078;-56
2021/10/31 09:01:14;;;;;;;20.20;7.70;;;;;;;;;;5051800;28;20028;-56
2021/10/31 09:03:41;;;;;;;12.05;6.40;;;;;;;;;;5050952;28;20056;-56
2021/10/31 09:06:08;;;;;;;14.52;7.25;;;;;;;;;;5052069;28;20029;-56
2021/10/31 09:08:34;;;;;;;10.43;6.18;;;;;;;;;;5052075;28;20031;-56
2021/10/31 09:11:00;;;;;;;13.73;6.10;;;;;;;;;;5052166;28;20021;-56
2021/10/31 09:13:26;;;;;;;12.63;6.43;;;;;;;;;;5051140;28;20052;-55
2021/10/31 09:15:52;;;;;;;13.40;6.72;;;;;;;;;;5052033;28;20096;-56
2021/10/31 09:18:19;;;;;;;10.43;5.85;;;;;;;;;;5052423;28;20112;-56
2021/10/31 09:20:45;;;;;;;18.58;6.72;;;;;;;;;;5051230;28;20031;-55
2021/10/31 09:23:11;;;;;;;12.13;7.13;;;;;;;;;;5050945;28;20033;-55
2021/10/31 09:25:38;;;;;;;11.32;5.00;;;;;;;;;;5052549;28;20108;-55
2021/10/31 09:28:05;;;;;;;7.28;4.20;;;;;;;;;;5052004;28;20032;-55
2021/10/31 09:30:32;;;;;;;5.97;4.28;;;;;;;;;;5051321;28;20025;-56
2021/10/31 09:32:58;;;;;;;7.35;4.03;;;;;;;;;;5051385;28;20037;-56
2021/10/31 09:35:29;;;;;;;7.03;3.97;;;;;;;;;;5052503;28;20025;-56
2021/10/31 09:38:01;;;;;;;8.35;5.15;;;;;;;;;;5051462;28;20024;-56
2021/10/31 09:40:27;;;;;;;7.65;4.72;;;;;;;;;;5051640;28;20108;-56
2021/10/31 09:42:54;;;;;;;9.25;5.18;;;;;;;;;;5050934;28;20025;-57
2021/10/31 09:45:21;;;;;;;7.05;4.18;;;;;;;;;;5051066;28;20458;-56
2021/10/31 09:48:01;;;;;;;9.75;4.90;;;;;;;;;;5051914;28;20112;-56
2021/10/31 09:50:27;;;;;;;13.30;4.83;;;;;;;;;;5051443;28;20056;-56
2021/10/31 09:52:54;;;;;;;8.15;4.20;;;;;;;;;;5050659;28;20046;-55
2021/10/31 09:55:21;;;;;;;7.85;4.60;;;;;;;;;;5052142;28;20021;-55
2021/10/31 09:57:47;;;;;;;10.23;4.90;;;;;;;;;;5051497;28;20489;-55
2021/10/31 10:00:14;;;;;;;10.65;5.20;;;;;;;;;;5049941;28;20104;-55
2021/10/31 10:05:35;;;;;;;8.65;4.45;;;;;;;;;;5049150;28;20340;-55
2021/10/31 10:08:10;;;;;;;9.48;4.72;;;;;;;;;;5048388;28;20493;-55
2021/10/31 10:10:44;;;;;;;7.22;4.10;;;;;;;;;;5048496;28;20036;-56
2021/10/31 10:13:21;;;;;;;8.43;4.35;;;;;;;;;;5048117;28;20075;-55
2021/10/31 10:15:48;;;;;;;10.10;4.18;;;;;;;;;;5048504;28;20120;-55
2021/10/31 10:18:31;;;;;;;7.65;4.40;;;;;;;;;;5048762;28;20029;-56
2021/10/31 10:21:16;;;;;;;9.10;4.90;;;;;;;;;;5048577;28;20029;-56
2021/10/31 10:24:09;;;;;;;9.73;4.43;;;;;;;;;;5042206;28;20041;-55
2021/10/31 10:26:40;;;;;;;8.18;4.85;;;;;;;;;;5028115;28;20037;-55
2021/10/31 10:29:10;;;;;;;7.50;4.20;;;;;;;;;;5028574;28;20455;-55
2021/10/31 10:31:36;;;;;;;7.68;4.07;;;;;;;;;;5030249;28;20042;-55
2021/10/31 10:34:04;;;;;;;8.35;3.60;;;;;;;;;;5031851;28;20048;-56
2021/10/31 10:36:35;;;;;;;8.85;3.90;;;;;;;;;;5042230;28;20076;-55
2021/10/31 10:39:11;;;;;;;6.82;3.92;;;;;;;;;;5045715;28;20172;-55
2021/10/31 10:41:45;;;;;;;9.57;4.82;;;;;;;;;;5032697;28;20421;-56
2021/10/31 10:44:30;;;;;;;9.40;4.18;;;;;;;;;;5033709;28;20509;-55
2021/10/31 10:47:01;;;;;;;6.90;4.20;;;;;;;;;;5034938;28;20037;-55
2021/10/31 10:49:31;;;;;;;8.32;4.07;;;;;;;;;;5034369;28;20036;-55
2021/10/31 10:52:06;;;;;;;8.70;4.32;;;;;;;;;;5032811;28;20459;-55
2021/10/31 10:54:34;;;;;;;6.40;3.58;;;;;;;;;;5042318;28;20037;-56
2021/10/31 10:57:00;;;;;;;3.97;2.63;;;;;;;;;;5044926;28;20328;-54
2021/10/31 10:59:27;;;;;;;8.38;3.50;;;;;;;;;;5038763;28;20037;-54
2021/10/31 11:02:11;;;;;;;5.97;3.38;;;;;;;;;;5047100;28;20021;-55
2021/10/31 11:04:38;;;;;;;8.65;4.63;;;;;;;;;;5044379;28;20516;-54
2021/10/31 11:07:05;;;;;;;7.85;4.47;;;;;;;;;;5039241;28;20071;-54
2021/10/31 11:09:41;;;;;;;6.50;3.63;;;;;;;;;;5043916;28;20021;-54
2021/10/31 11:12:34;;;;;;;7.57;4.55;;;;;;;;;;5033206;28;20021;-54
2021/10/31 11:15:01;;;;;;;6.80;4.30;;;;;;;;;;5046688;28;20421;-54
2021/10/31 11:17:28;;;;;;;7.00;4.70;;;;;;;;;;5051837;28;20025;-54
2021/10/31 11:19:55;;;;;;;7.15;4.43;;;;;;;;;;5043670;28;20017;-54
2021/10/31 11:22:22;;;;;;;6.95;3.75;;;;;;;;;;5041824;28;20022;-54
2021/10/31 11:24:48;;;;;;;7.40;4.35;;;;;;;;;;5041523;28;20036;-54
2021/10/31 11:27:17;;;;;;;5.25;3.38;;;;;;;;;;5045903;28;20043;-53
2021/10/31 11:29:43;;;;;;;8.25;4.28;;;;;;;;;;5051740;28;20090;-54
2021/10/31 11:32:10;;;;;;;5.40;3.30;;;;;;;;;;5033528;28;20025;-54
2021/10/31 11:34:36;;;;;;;6.75;3.78;;;;;;;;;;5040018;28;20033;-54
2021/10/31 11:37:02;;;;;;;6.80;3.70;;;;;;;;;;5053739;28;20017;-54
2021/10/31 11:39:29;;;;;;;9.25;4.40;;;;;;;;;;5053286;28;20044;-54
2021/10/31 11:41:56;;;;;;;5.57;3.60;;;;;;;;;;5045553;28;20017;-54
2021/10/31 11:44:26;;;;;;;6.25;3.53;;;;;;;;;;5044889;28;20029;-54
2021/10/31 11:46:52;;;;;;;7.43;3.88;;;;;;;;;;5045050;28;20029;-54
2021/10/31 11:49:18;;;;;;;9.45;4.40;;;;;;;;;;5045494;28;20143;-54
2021/10/31 11:51:47;;;;;;;9.68;4.03;;;;;;;;;;5047428;28;20040;-54
2021/10/31 11:54:14;;;;;;;6.22;3.55;;;;;;;;;;5053756;28;20095;-54
2021/10/31 11:56:49;;;;;;;5.32;3.38;;;;;;;;;;5054684;28;20047;-55
2021/10/31 11:59:16;;;;;;;7.00;3.72;;;;;;;;;;5047134;28;20032;-54
2021/10/31 12:01:47;;;;;;;6.55;3.53;;;;;;;;;;5053395;28;20013;-54
2021/10/31 12:04:13;;;;;;;8.00;3.60;;;;;;;;;;5042663;28;20025;-54
2021/10/31 12:06:42;;;;;;;6.03;4.22;;;;;;;;;;5045606;28;20398;-54
2021/10/31 12:09:19;;;;;;;12.35;4.45;;;;;;;;;;5050666;28;20110;-54
2021/10/31 12:11:45;;;;;;;7.35;3.92;;;;;;;;;;5044159;28;20048;-54
2021/10/31 12:14:13;;;;;;;7.07;3.70;;;;;;;;;;5044496;28;20099;-54
2021/10/31 12:16:51;;;;;;;6.68;3.60;;;;;;;;;;5048885;28;20021;-52
2021/10/31 12:19:22;;;;;;;4.75;3.20;;;;;;;;;;5053606;28;20028;-52
2021/10/31 12:22:03;;;;;;;8.05;4.13;;;;;;;;;;5054039;28;20108;-52
2021/10/31 12:24:35;;;;;;;9.60;3.97;;;;;;;;;;5053666;28;20021;-52
2021/10/31 12:27:08;;;;;;;7.38;4.50;;;;;;;;;;5054059;28;20032;-52
2021/10/31 12:29:36;;;;;;;5.93;3.58;;;;;;;;;;5054103;28;20033;-52
2021/10/31 12:32:04;;;;;;;6.00;3.72;;;;;;;;;;5053618;28;20526;-52
2021/10/31 12:34:39;;;;;;;6.18;4.18;;;;;;;;;;5052746;28;20040;-52
2021/10/31 12:37:24;;;;;;;7.05;4.10;;;;;;;;;;5053942;28;20147;-52
2021/10/31 12:40:11;;;;;;;4.85;3.50;;;;;;;;;;5053467;28;20455;-52
2021/10/31 12:42:46;;;;;;;5.20;3.67;;;;;;;;;;5053759;28;20458;-52
2021/10/31 12:45:12;;;;;;;4.72;3.20;;;;;;;;;;5052926;28;20083;-52
2021/10/31 12:47:40;;;;;;;4.88;3.28;;;;;;;;;;5053657;28;20405;-52
2021/10/31 12:50:08;;;;;;;5.05;3.15;;;;;;;;;;5048098;28;20033;-52
2021/10/31 12:52:34;;;;;;;7.82;4.38;;;;;;;;;;5035127;28;20013;-52
2021/10/31 12:55:08;;;;;;;7.53;4.55;;;;;;;;;;5032968;28;20030;-52
2021/10/31 12:57:34;;;;;;;5.40;2.88;;;;;;;;;;5033622;28;20022;-52
2021/10/31 13:00:04;;;;;;;6.57;3.50;;;;;;;;;;5037301;28;20117;-52
2021/10/31 13:02:37;;;;;;;5.50;3.75;;;;;;;;;;5041434;28;20079;-52
2021/10/31 13:05:05;;;;;;;7.65;4.20;;;;;;;;;;5046176;28;20132;-51
2021/10/31 13:07:42;;;;;;;6.57;3.30;;;;;;;;;;5037755;28;20426;-52
2021/10/31 13:10:13;;;;;;;9.90;4.22;;;;;;;;;;5043810;28;20025;-52
2021/10/31 13:12:39;;;;;;;6.68;3.90;;;;;;;;;;5049043;28;20025;-52
2021/10/31 13:15:07;;;;;;;7.10;3.75;;;;;;;;;;5052292;28;20362;-52
2021/10/31 13:17:34;;;;;;;6.97;3.70;;;;;;;;;;5053139;28;20403;-52
2021/10/31 13:20:11;;;;;;;6.43;3.35;;;;;;;;;;5052868;28;20036;-52
2021/10/31 13:22:38;;;;;;;5.40;2.72;;;;;;;;;;5053057;28;20459;-52
2021/10/31 13:25:04;;;;;;;5.65;3.47;;;;;;;;;;5050482;28;20135;-52
2021/10/31 13:27:30;;;;;;;6.80;4.20;;;;;;;;;;5053212;28;20460;-52
2021/10/31 13:29:56;;;;;;;4.18;2.83;;;;;;;;;;5052583;28;20039;-52
2021/10/31 13:32:24;;;;;;;8.00;3.58;;;;;;;;;;5053041;28;20025;-52
2021/10/31 13:34:52;;;;;;;7.70;3.72;;;;;;;;;;5045868;28;20069;-52
2021/10/31 13:37:20;;;;;;;8.57;3.10;;;;;;;;;;5037655;28;20100;-52
2021/10/31 13:40:00;;;;;;;5.45;3.08;;;;;;;;;;5033012;28;20084;-52
2021/10/31 13:42:27;;;;;;;5.22;3.53;;;;;;;;;;5033170;28;20036;-52
2021/10/31 13:44:53;;;;;;;5.63;3.17;;;;;;;;;;5032059;28;20030;-52
2021/10/31 13:47:32;;;;;;;23.35;10.13;;;;;;;;;;5032516;28;20033;-52
2021/10/31 13:50:00;;;;;;;9.55;3.72;;;;;;;;;;5032944;28;20038;-52
2021/10/31 13:52:27;;;;;;;11.48;3.70;;;;;;;;;;5032492;28;20021;-52
2021/10/31 13:54:54;;;;;;;4.60;3.03;;;;;;;;;;5032208;28;20057;-52
2021/10/31 13:57:25;;;;;;;5.65;3.08;;;;;;;;;;5032817;28;20025;-52
2021/10/31 13:59:53;;;;;;;5.72;3.47;;;;;;;;;;5031902;28;20087;-52
2021/10/31 14:02:20;;;;;;;4.28;2.95;;;;;;;;;;5039742;28;20029;-52
2021/10/31 14:04:47;;;;;;;6.10;3.58;;;;;;;;;;5044726;28;20070;-52
2021/10/31 14:07:15;;;;;;;5.00;3.03;;;;;;;;;;5055424;28;20029;-52
2021/10/31 14:09:45;;;;;;;6.30;3.97;;;;;;;;;;5056360;28;20037;-52
2021/10/31 14:12:18;;;;;;;3.10;2.30;;;;;;;;;;5036995;28;20048;-52
2021/10/31 14:14:48;;;;;;;5.28;3.03;;;;;;;;;;5035868;28;20060;-52
2021/10/31 14:17:16;;;;;;;6.63;2.65;;;;;;;;;;5036779;28;20097;-53
2021/10/31 14:19:43;;;;;;;6.03;2.72;;;;;;;;;;5036631;28;20029;-52
2021/10/31 14:22:10;;;;;;;6.13;3.53;;;;;;;;;;5036656;28;20025;-53
2021/10/31 14:24:36;;;;;;;6.30;3.42;;;;;;;;;;5035827;28;20053;-52
2021/10/31 14:27:16;;;;;;;6.03;3.55;;;;;;;;;;5036172;28;20440;-52
2021/10/31 14:29:42;;;;;;;4.03;2.75;;;;;;;;;;5036233;28;20436;-53
2021/10/31 14:32:08;;;;;;;3.88;2.80;;;;;;;;;;5034761;28;20044;-52
2021/10/31 14:34:53;;;;;;;3.97;3.00;;;;;;;;;;5035708;28;20038;-52
2021/10/31 14:37:19;;;;;;;3.53;2.75;;;;;;;;;;5036250;28;20021;-53
2021/10/31 14:39:45;;;;;;;6.75;2.88;;;;;;;;;;5036362;28;20443;-53
2021/10/31 14:42:24;;;;;;;4.07;2.45;;;;;;;;;;5036298;28;20032;-52
2021/10/31 14:44:50;;;;;;;4.07;2.33;;;;;;;;;;5035161;28;20431;-52